Aeroporto :
LOGIN :

Iscrizione | Disclaimer

   EN    FR    IT 

 










Sommario :    VFR   VFR Marginale   IFR   IFR Intensivo   IFR Molto Intensivo
Visibilità : 
Base nubi : 
>= 8 km
>= 3000ft
5 / 8 km
1000 / 3000 ft
1500m / 5 km
500 / 1000 ft
800 / 1500m
200 / 500 ft
< 800m
< 200 ft
Simboli :   Temporali  Nebbia  Neve Forte  Precipitazioni Forti  Vento > 20 kt
SIGMETs :   Varie  Temporali  Ghiacco  Turbolenza  Onda orograficha  Ceneri Vulcaniche






- Altitudine del aeroporto : 283 ft
- Codice IATA : KKN


ENKR - Kirkenes , Høybuktmoen

ULTIMO METAR :
  • 150420Z AUTO 08003KT 9999 FEW005/// OVC008/// M02/M03 Q1004 RMK WIND 731FT VRB02KT

METARs OBSOLETI :
  • 150350Z AUTO 14003KT 9999 BKN005/// OVC009/// M02/M03 Q1004 RMK WIND 731FT 14005KT
  • 150320Z AUTO 15005KT 9999 BKN006/// OVC009/// M02/M03 Q1005 RMK WIND 731FT 16006KT
  • 150250Z AUTO 15004KT 9999 OVC007/// M02/M03 Q1005 RMK WIND 731FT 17007KT
  • 150220Z AUTO 15005KT 9999 OVC005/// M02/M03 Q1005 RMK WIND 731FT 17006KT
  • 150150Z AUTO 20004KT 9999 SCT003/// OVC004/// M03/M03 Q1005 RMK WIND 731FT 21011KT
  • 150120Z AUTO 19004KT 9999 BKN002/// OVC005/// M03/M03 Q1005 RMK WIND 731FT 19008KT

TAF TAF ENKR
Valido dal 15 a 03 ore il 15 a 12 ore UTC


150200Z 1503/1512 19008KT 9999 FEW008 BKN020
TEMPO 1503/1512 BKN004



MetMap, La meteo Aeronautica in un colpo d'occhio ! - Copyright ORBIFLY Dicembre 2007 - Disclaimer

ORBIFLY MET'MAP TEAM :

Programmazione e sviluppo : Alexandra Zaïnal
Concezione : Baudouin d'Aumeries
Aiuto per la programmazione : Marc-Olivier Méhu
Supporto tecnico e logistico : Manuel Goepfert
Aiuto per la traduzione : Arnaldo La Scala

Contatto : metmap@orbifly.com




FONTI E CREDITI :

   NOAA